Time;durP1;ratioP1;P1;durP2;ratioP2;P2;SDS_P1;SDS_P2;PMS_P1;PMS_P2;Temp;Humidity;BMP_temperature;BMP_pressure;BME280_temperature;BME280_humidity;BME280_pressure;Samples;Min_cycle;Max_cycle;Signal;HPM_P1;HPM_P2
2023/10/09 00:03:06;;;;;;;12.00;6.18;;;13.90;99.90;;;;;;5062303;28;20044;-31
2023/10/09 00:06:06;;;;;;;10.18;6.38;;;13.90;99.90;;;;;;5061108;28;20040;-31
2023/10/09 00:08:31;;;;;;;10.02;5.95;;;13.90;99.90;;;;;;5061075;28;20071;-30
2023/10/09 00:10:59;;;;;;;13.20;6.97;;;13.90;99.90;;;;;;5067963;28;20507;-32
2023/10/09 00:13:32;;;;;;;11.90;6.20;;;13.90;99.90;;;;;;5062149;28;20044;-30
2023/10/09 00:16:13;;;;;;;10.40;6.45;;;13.90;99.90;;;;;;5062530;28;20025;-30
2023/10/09 00:18:45;;;;;;;12.38;6.72;;;13.90;99.90;;;;;;5061311;28;20496;-30
2023/10/09 00:21:15;;;;;;;9.57;6.22;;;13.90;99.90;;;;;;5054373;28;20056;-30
2023/10/09 00:23:41;;;;;;;11.20;7.22;;;13.90;99.90;;;;;;5042782;28;20052;-30
2023/10/09 00:26:42;;;;;;;9.07;6.30;;;13.90;99.90;;;;;;5057333;28;20037;-30
2023/10/09 00:28:56;;;;;;;10.95;7.95;;;13.90;99.90;;;;;;5066264;28;20136;-30
2023/10/09 00:31:33;;;;;;;14.23;7.72;;;13.90;99.90;;;;;;5043401;28;20119;-29
2023/10/09 00:34:19;;;;;;;14.85;7.95;;;13.90;99.90;;;;;;5069657;28;20037;-30
2023/10/09 00:36:51;;;;;;;11.05;7.30;;;13.90;99.90;;;;;;5047367;28;20044;-30
2023/10/09 00:42:06;;;;;;;15.52;8.40;;;13.90;99.90;;;;;;5067099;28;20071;-30
2023/10/09 00:44:39;;;;;;;15.68;8.85;;;13.90;99.90;;;;;;5058112;28;20071;-31
2023/10/09 00:47:26;;;;;;;14.60;9.15;;;13.90;99.90;;;;;;5060592;28;20120;-30
2023/10/09 00:49:59;;;;;;;17.15;8.70;;;13.90;99.90;;;;;;5063753;28;20040;-31
2023/10/09 00:52:43;;;;;;;15.40;9.57;;;13.80;99.90;;;;;;5066018;28;20380;-30
2023/10/09 00:55:14;;;;;;;14.68;9.30;;;13.80;99.90;;;;;;5070008;28;20037;-31
2023/10/09 00:57:50;;;;;;;15.15;9.18;;;13.80;99.90;;;;;;5070364;28;20043;-31
2023/10/09 01:05:57;;;;;;;16.80;9.88;;;13.80;99.90;;;;;;5053086;28;20055;-31
2023/10/09 01:08:30;;;;;;;15.65;10.05;;;13.80;99.90;;;;;;5069317;28;20060;-30
2023/10/09 01:11:08;;;;;;;16.02;9.07;;;13.80;99.90;;;;;;5063540;28;20464;-31
2023/10/09 01:16:28;;;;;;;15.15;9.73;;;13.80;99.90;;;;;;5032930;28;20564;-29
2023/10/09 01:18:58;;;;;;;19.38;11.40;;;13.80;99.90;;;;;;5077553;28;20044;-30
2023/10/09 01:21:26;;;;;;;16.40;10.85;;;13.80;99.90;;;;;;5060800;28;20033;-29
2023/10/09 01:26:44;;;;;;;17.52;10.95;;;13.80;99.90;;;;;;5067992;28;20411;-29
2023/10/09 01:29:19;;;;;;;15.45;9.77;;;13.80;99.90;;;;;;5067353;28;20070;-29
2023/10/09 01:31:54;;;;;;;18.95;11.35;;;13.70;99.90;;;;;;5068213;28;20103;-29
2023/10/09 01:37:05;;;;;;;18.23;10.77;;;13.70;99.90;;;;;;5072456;28;20093;-29
2023/10/09 01:39:31;;;;;;;18.27;10.48;;;13.70;99.90;;;;;;5071911;28;20094;-29
2023/10/09 01:42:00;;;;;;;20.65;11.07;;;13.70;99.90;;;;;;5070431;28;20426;-29
2023/10/09 01:44:34;;;;;;;19.52;11.02;;;13.70;99.90;;;;;;5072772;28;20510;-29
2023/10/09 01:47:14;;;;;;;19.10;11.45;;;13.70;99.90;;;;;;5063666;28;20426;-29
2023/10/09 01:49:48;;;;;;;21.27;12.65;;;13.70;99.90;;;;;;5037130;28;20051;-29
2023/10/09 01:52:18;;;;;;;25.58;12.82;;;13.70;99.90;;;;;;5042997;28;20424;-29
2023/10/09 01:54:49;;;;;;;20.92;13.00;;;13.70;99.90;;;;;;5066135;28;20044;-28
2023/10/09 01:57:21;;;;;;;22.70;13.77;;;13.70;99.90;;;;;;5058529;28;20044;-28
2023/10/09 01:59:49;;;;;;;26.03;14.47;;;13.70;99.90;;;;;;5047877;28;20040;-29
2023/10/09 02:02:25;;;;;;;23.48;14.40;;;13.70;99.90;;;;;;5063790;28;20331;-29
2023/10/09 02:04:53;;;;;;;21.70;12.82;;;13.70;99.90;;;;;;5070365;28;20098;-28
2023/10/09 02:07:26;;;;;;;19.63;13.23;;;13.70;99.90;;;;;;5065100;28;20400;-29
2023/10/09 02:09:54;;;;;;;23.38;14.05;;;13.70;99.90;;;;;;5052226;28;20040;-29
2023/10/09 02:12:21;;;;;;;23.67;14.77;;;13.70;99.90;;;;;;5064158;28;20102;-29
2023/10/09 02:14:47;;;;;;;25.17;14.25;;;13.70;99.90;;;;;;5065510;28;20094;-29
2023/10/09 02:17:28;;;;;;;25.13;14.75;;;13.70;99.90;;;;;;5065203;28;20030;-28
2023/10/09 02:19:54;;;;;;;24.80;15.40;;;13.70;99.90;;;;;;5067924;28;20037;-29
2023/10/09 02:22:19;;;;;;;22.77;14.65;;;13.60;99.90;;;;;;5067041;28;20063;-29
2023/10/09 02:27:45;;;;;;;24.55;16.70;;;13.70;99.90;;;;;;5059608;28;20045;-29
2023/10/09 02:30:15;;;;;;;25.90;15.77;;;13.70;99.90;;;;;;5061167;28;20048;-29
2023/10/09 02:32:44;;;;;;;25.02;15.18;;;13.70;99.90;;;;;;5056955;28;20439;-29
2023/10/09 02:38:14;;;;;;;27.30;16.60;;;13.70;99.90;;;;;;5030984;28;20037;-28
2023/10/09 02:40:53;;;;;;;27.58;16.70;;;13.70;99.90;;;;;;5063860;28;20033;-29
2023/10/09 02:43:19;;;;;;;27.85;17.13;;;13.70;99.90;;;;;;5064363;28;20093;-29
2023/10/09 02:45:50;;;;;;;31.83;18.55;;;13.70;99.90;;;;;;5057291;28;20037;-28
2023/10/09 02:48:19;;;;;;;29.23;17.95;;;13.70;99.90;;;;;;5041942;28;20052;-29
2023/10/09 02:50:46;;;;;;;33.45;18.35;;;13.70;99.90;;;;;;5056752;28;20048;-29
2023/10/09 02:53:18;;;;;;;32.53;19.02;;;13.80;99.90;;;;;;5055260;28;20037;-29
2023/10/09 02:56:02;;;;;;;34.50;19.88;;;13.70;99.90;;;;;;5057418;28;20514;-29
2023/10/09 02:58:31;;;;;;;30.00;19.05;;;13.70;99.90;;;;;;5060751;28;20048;-28
2023/10/09 03:00:59;;;;;;;35.05;19.80;;;13.80;99.90;;;;;;5036884;28;20128;-29
2023/10/09 03:03:25;;;;;;;31.63;19.60;;;13.80;99.90;;;;;;5056690;28;20043;-29
2023/10/09 03:05:51;;;;;;;33.03;21.63;;;13.80;99.90;;;;;;5047278;28;20124;-28
2023/10/09 03:08:19;;;;;;;31.42;19.55;;;13.80;99.90;;;;;;5057766;28;20078;-29
2023/10/09 03:10:45;;;;;;;32.35;21.13;;;13.80;99.90;;;;;;5040849;28;20083;-29
2023/10/09 03:13:11;;;;;;;35.05;20.58;;;13.80;99.90;;;;;;5056160;23;20098;-85
2023/10/09 03:15:38;;;;;;;31.48;21.13;;;13.80;99.90;;;;;;5034820;28;20143;-85
2023/10/09 03:18:07;;;;;;;28.58;19.80;;;13.80;99.90;;;;;;5031636;28;20070;-85
2023/10/09 03:20:33;;;;;;;34.33;21.98;;;13.90;99.90;;;;;;5031578;28;20033;-86
2023/10/09 03:23:01;;;;;;;37.78;22.25;;;13.90;99.90;;;;;;5041821;28;20037;-85
2023/10/09 03:25:28;;;;;;;34.22;21.55;;;13.80;99.90;;;;;;5045739;28;20067;-85
2023/10/09 03:27:56;;;;;;;33.45;22.80;;;13.90;99.90;;;;;;5031338;28;20032;-85
2023/10/09 03:30:24;;;;;;;36.53;22.38;;;13.90;99.90;;;;;;5029329;28;20693;-86
2023/10/09 03:32:51;;;;;;;37.30;21.55;;;13.90;99.90;;;;;;5047278;28;20131;-85
2023/10/09 03:35:24;;;;;;;30.15;20.33;;;13.90;99.90;;;;;;5042513;28;20132;-85
2023/10/09 03:38:00;;;;;;;37.92;21.17;;;13.90;99.90;;;;;;5027895;28;20124;-85
2023/10/09 03:40:27;;;;;;;39.35;23.52;;;13.90;99.90;;;;;;5029121;28;20105;-85
2023/10/09 03:42:53;;;;;;;36.00;21.90;;;13.90;99.90;;;;;;5043155;28;20111;-85
2023/10/09 03:45:25;;;;;;;35.97;23.15;;;13.90;99.90;;;;;;5026236;28;20072;-85
2023/10/09 03:47:57;;;;;;;42.97;26.02;;;13.90;99.90;;;;;;5025846;28;20585;-85
2023/10/09 03:50:38;;;;;;;38.25;22.50;;;14.00;99.90;;;;;;5033068;28;20071;-85
2023/10/09 03:53:07;;;;;;;44.05;25.10;;;14.00;99.90;;;;;;5032900;28;20112;-85
2023/10/09 03:55:34;;;;;;;44.90;24.98;;;14.00;99.90;;;;;;5053154;28;20052;-85
2023/10/09 03:58:00;;;;;;;36.47;23.02;;;14.00;99.90;;;;;;5026416;28;20040;-85
2023/10/09 04:00:29;;;;;;;39.58;24.58;;;14.00;99.90;;;;;;5050650;28;20041;-85
2023/10/09 04:02:58;;;;;;;41.55;23.92;;;14.10;99.90;;;;;;5025479;28;20041;-85
2023/10/09 04:05:24;;;;;;;40.50;25.08;;;14.10;99.90;;;;;;5049911;28;20460;-85
2023/10/09 04:07:53;;;;;;;40.00;25.83;;;14.10;99.90;;;;;;5033522;28;20064;-85
2023/10/09 04:13:08;;;;;;;43.90;26.20;;;14.20;99.90;;;;;;5051953;28;20044;-86
2023/10/09 04:15:35;;;;;;;41.75;26.83;;;14.20;99.90;;;;;;5040097;28;20045;-85
2023/10/09 04:18:01;;;;;;;41.05;25.63;;;14.20;99.90;;;;;;5036631;28;20120;-85
2023/10/09 04:23:05;;;;;;;43.92;26.27;;;14.20;99.90;;;;;;5043909;28;20642;-86
2023/10/09 04:25:45;;;;;;;43.42;26.58;;;14.30;99.90;;;;;;5054394;28;20097;-87
2023/10/09 04:28:22;;;;;;;43.72;25.80;;;14.30;99.90;;;;;;5029236;28;20048;-86
2023/10/09 04:30:53;;;;;;;42.92;24.98;;;14.40;99.90;;;;;;5033158;28;20044;-85
2023/10/09 04:33:28;;;;;;;45.40;28.17;;;14.40;99.90;;;;;;5044581;28;20151;-86
2023/10/09 04:38:52;;;;;;;46.60;26.23;;;14.50;99.90;;;;;;5047924;28;20490;-86
2023/10/09 04:41:27;;;;;;;54.45;29.60;;;14.50;99.90;;;;;;5033171;28;20104;-86
2023/10/09 04:44:18;;;;;;;47.95;28.58;;;14.60;99.90;;;;;;5031421;28;20508;-86
2023/10/09 04:46:44;;;;;;;48.63;29.10;;;14.60;99.90;;;;;;5053585;28;20109;-86
2023/10/09 04:49:27;;;;;;;47.15;29.15;;;14.70;99.90;;;;;;5037228;28;20498;-87
2023/10/09 04:52:09;;;;;;;44.78;26.42;;;14.70;99.90;;;;;;5027408;28;20136;-86
2023/10/09 04:55:02;;;;;;;45.75;28.77;;;14.80;99.90;;;;;;5029947;28;20429;-86
2023/10/09 04:57:27;;;;;;;44.83;27.15;;;14.80;99.90;;;;;;5044746;28;20037;-87
2023/10/09 04:59:54;;;;;;;39.38;26.33;;;14.90;99.90;;;;;;5053402;28;20048;-86
2023/10/09 05:02:22;;;;;;;51.85;29.75;;;15.00;99.90;;;;;;5031311;28;20037;-84
2023/10/09 05:05:01;;;;;;;48.75;26.85;;;15.00;99.90;;;;;;5050211;28;20045;-86
2023/10/09 05:10:17;;;;;;;45.45;28.73;;;15.00;99.90;;;;;;5047163;28;20049;-86
2023/10/09 05:12:56;;;;;;;47.17;29.30;;;15.10;99.90;;;;;;5028017;28;20041;-85
2023/10/09 05:15:34;;;;;;;44.05;28.50;;;15.20;99.90;;;;;;5030365;28;20492;-86
2023/10/09 05:18:09;;;;;;;46.80;28.88;;;15.20;99.90;;;;;;5028715;28;20119;-86
2023/10/09 05:23:26;;;;;;;46.40;28.42;;;15.30;99.90;;;;;;5043063;28;20045;-86
2023/10/09 05:25:55;;;;;;;47.42;28.77;;;15.30;99.90;;;;;;5033805;28;20462;-86
2023/10/09 05:28:30;;;;;;;42.72;28.02;;;15.30;99.90;;;;;;5029416;28;20040;-86
2023/10/09 05:31:07;;;;;;;47.97;29.00;;;15.40;99.90;;;;;;5041402;28;20604;-86
2023/10/09 05:33:36;;;;;;;51.90;30.25;;;15.40;99.90;;;;;;5028010;28;20036;-86
2023/10/09 05:38:59;;;;;;;49.33;30.30;;;15.40;99.90;;;;;;5048370;28;20044;-87
2023/10/09 05:41:31;;;;;;;44.10;26.73;;;15.50;99.90;;;;;;5031705;28;20129;-86
2023/10/09 05:47:22;;;;;;;39.28;26.05;;;15.40;99.90;;;;;;5049450;28;20040;-87
2023/10/09 05:49:45;;;;;;;38.80;25.73;;;15.50;99.90;;;;;;5044464;28;20053;-87
2023/10/09 05:52:42;;;;;;;42.47;26.80;;;15.50;99.90;;;;;;5025107;28;20051;-87
2023/10/09 06:08:26;;;;;;;40.47;25.35;;;15.60;99.90;;;;;;5046885;28;20044;-87
2023/10/09 06:11:05;;;;;;;39.88;23.27;;;15.60;99.90;;;;;;5042151;28;20122;-87
2023/10/09 06:13:39;;;;;;;36.33;22.60;;;15.60;99.90;;;;;;5049914;28;20052;-88
2023/10/09 06:16:29;;;;;;;40.55;23.88;;;15.60;99.90;;;;;;5031754;28;20040;-88
2023/10/09 06:19:07;;;;;;;36.83;22.88;;;15.60;99.90;;;;;;5034275;28;20037;-88
2023/10/09 06:22:56;;;;;;;34.33;21.83;;;15.70;99.90;;;;;;5052660;28;20048;-87
2023/10/09 06:24:23;;;;;;;38.13;23.73;;;15.70;99.90;;;;;;5037770;28;20510;-88
2023/10/09 06:29:38;;;;;;;29.65;20.17;;;15.70;99.90;;;;;;5048636;28;20040;-86
2023/10/09 06:38:21;;;;;;;27.63;18.98;;;15.80;99.90;;;;;;5036659;28;20045;-86
2023/10/09 06:43:09;;;;;;;27.35;19.27;;;15.90;99.90;;;;;;5045948;28;20041;-87
2023/10/09 06:45:45;;;;;;;32.60;19.25;;;15.90;99.90;;;;;;5025595;28;20047;-86
2023/10/09 06:54:09;;;;;;;27.67;17.23;;;15.90;99.90;;;;;;4970264;28;20444;-86
2023/10/09 07:07:07;;;;;;;26.38;15.75;;;16.20;99.90;;;;;;5044961;28;20055;-89
2023/10/09 07:09:42;;;;;;;22.10;14.00;;;16.20;99.90;;;;;;5034443;28;20043;-89
2023/10/09 07:12:20;;;;;;;23.42;14.38;;;16.20;99.90;;;;;;5023990;28;20040;-88
2023/10/09 07:24:58;;;;;;;17.00;12.40;;;16.40;99.90;;;;;;5044297;28;20438;-88
2023/10/09 07:27:45;;;;;;;19.60;13.02;;;16.30;99.90;;;;;;5028412;28;20044;-89
2023/10/09 07:33:21;;;;;;;18.02;11.85;;;16.40;99.90;;;;;;5047421;28;20124;-89
2023/10/09 07:35:57;;;;;;;17.20;11.45;;;16.40;99.90;;;;;;5048661;28;20051;-88
2023/10/09 07:38:28;;;;;;;;;;;16.50;99.90;;;;;;5032872;28;20767;-88
2023/10/09 07:43:41;;;;;;;15.55;11.20;;;16.50;99.90;;;;;;5041260;28;20049;-87
2023/10/09 07:46:51;;;;;;;16.45;10.18;;;16.50;99.90;;;;;;5053256;28;20479;-89
2023/10/09 07:49:27;;;;;;;15.13;10.15;;;16.50;99.90;;;;;;5034283;28;20032;-88
2023/10/09 07:51:53;;;;;;;20.88;11.35;;;16.50;99.90;;;;;;5032464;28;20043;-88
2023/10/09 07:54:36;;;;;;;17.00;11.52;;;16.50;99.90;;;;;;5049196;28;20041;-88
2023/10/09 07:57:15;;;;;;;17.45;9.50;;;16.50;99.90;;;;;;5030154;28;20033;-88
2023/10/09 07:59:54;;;;;;;17.52;10.55;;;16.60;99.90;;;;;;5038162;28;20041;-88
2023/10/09 08:02:32;;;;;;;18.20;10.95;;;16.60;99.90;;;;;;5036356;28;20406;-88
2023/10/09 08:05:18;;;;;;;16.98;10.20;;;16.60;99.90;;;;;;5035867;28;20037;-86
2023/10/09 08:07:54;;;;;;;15.50;10.05;;;16.70;99.90;;;;;;5047050;28;20052;-88
2023/10/09 08:17:58;;;;;;;21.83;9.82;;;16.80;99.90;;;;;;5049504;28;20040;-88
2023/10/09 08:20:26;;;;;;;21.85;9.57;;;16.80;99.90;;;;;;5034778;28;20452;-88
2023/10/09 08:22:58;;;;;;;17.20;10.20;;;16.90;99.90;;;;;;5023014;28;20038;-88
2023/10/09 08:25:32;;;;;;;17.08;9.15;;;16.90;99.90;;;;;;5027647;28;20041;-88
2023/10/09 08:30:48;;;;;;;15.75;9.48;;;17.00;99.90;;;;;;5050235;28;20181;-89
2023/10/09 08:36:01;;;;;;;17.67;10.48;;;17.00;99.90;;;;;;5052116;28;20127;-88
2023/10/09 08:38:33;;;;;;;17.85;9.70;;;17.10;99.90;;;;;;5031906;28;20482;-89
2023/10/09 08:41:21;;;;;;;14.63;9.85;;;17.10;99.90;;;;;;5035118;28;20044;-89
2023/10/09 08:43:53;;;;;;;16.05;10.00;;;17.10;99.90;;;;;;5034869;28;21579;-88
2023/10/09 08:46:32;;;;;;;19.75;10.25;;;17.10;99.90;;;;;;5052006;28;20032;-89
2023/10/09 08:49:09;;;;;;;;;;;;;;;;;;;;;
2023/10/09 08:51:42;;;;;;;16.80;9.05;;;17.10;99.90;;;;;;5054141;28;20118;-90
2023/10/09 08:54:20;;;;;;;12.85;9.23;;;17.10;99.90;;;;;;5033118;28;20044;-89
2023/10/09 08:56:56;;;;;;;15.55;8.90;;;17.10;99.90;;;;;;5060397;28;20051;-88
2023/10/09 08:59:36;;;;;;;14.05;9.57;;;17.20;99.90;;;;;;5030364;28;20078;-90
2023/10/09 09:02:11;;;;;;;18.73;10.60;;;17.30;99.90;;;;;;5051795;28;20048;-89
2023/10/09 09:04:45;;;;;;;17.17;9.57;;;17.10;99.90;;;;;;5035283;28;20407;-91
2023/10/09 09:07:39;;;;;;;15.32;9.77;;;17.20;99.90;;;;;;5036277;28;20171;-88
2023/10/09 09:10:17;;;;;;;16.52;9.55;;;17.10;99.90;;;;;;5052997;28;20102;-90
2023/10/09 09:15:21;;;;;;;16.80;10.20;;;17.20;99.90;;;;;;5049580;28;20037;-28
2023/10/09 09:17:51;;;;;;;15.75;9.75;;;17.20;99.90;;;;;;5051665;28;20048;-28
2023/10/09 09:20:27;;;;;;;19.48;9.95;;;17.30;99.90;;;;;;5037653;28;20036;-28
2023/10/09 09:22:56;;;;;;;18.75;9.93;;;17.30;99.90;;;;;;5046180;28;20110;-28
2023/10/09 09:25:31;;;;;;;17.48;10.25;;;17.30;99.90;;;;;;5042195;28;20491;-28
2023/10/09 09:27:57;;;;;;;16.70;9.45;;;17.30;99.90;;;;;;5048641;28;20037;-28
2023/10/09 09:30:33;;;;;;;17.20;10.30;;;17.30;99.90;;;;;;5048405;28;20037;-28
2023/10/09 09:33:20;;;;;;;15.88;9.52;;;17.20;99.90;;;;;;5040094;28;20124;-29
2023/10/09 09:36:03;;;;;;;15.07;9.07;;;17.20;99.90;;;;;;5044288;28;20130;-28
2023/10/09 09:38:49;;;;;;;18.83;10.07;;;17.20;99.90;;;;;;5046762;28;20036;-28
2023/10/09 09:41:25;;;;;;;17.45;9.32;;;17.10;99.90;;;;;;5027899;28;20033;-28
2023/10/09 09:44:02;;;;;;;16.70;10.32;;;17.10;99.90;;;;;;5043896;28;20036;-28
2023/10/09 09:46:34;;;;;;;15.60;9.90;;;17.10;99.90;;;;;;5046340;28;20051;-28
2023/10/09 09:49:01;;;;;;;17.65;10.38;;;17.10;99.90;;;;;;5041564;28;20091;-28
2023/10/09 09:51:30;;;;;;;20.27;10.20;;;17.10;99.90;;;;;;5041053;28;20048;-28
2023/10/09 09:53:57;;;;;;;17.25;10.32;;;17.10;99.90;;;;;;5050664;28;20045;-28
2023/10/09 09:56:25;;;;;;;18.52;10.15;;;17.10;99.90;;;;;;5040297;28;20033;-28
2023/10/09 09:58:55;;;;;;;19.52;11.07;;;17.10;99.90;;;;;;5037358;28;20068;-28
2023/10/09 10:01:26;;;;;;;18.83;10.52;;;17.10;99.90;;;;;;5044451;28;20339;-28
2023/10/09 10:04:20;;;;;;;17.10;10.43;;;17.20;99.90;;;;;;5038914;28;20037;-28
2023/10/09 10:06:47;;;;;;;21.55;9.93;;;17.20;99.90;;;;;;5046279;28;20499;-28
2023/10/09 10:09:40;;;;;;;17.95;10.68;;;17.20;99.90;;;;;;5044185;28;20073;-28
2023/10/09 10:12:14;;;;;;;16.50;10.00;;;17.20;99.90;;;;;;5048649;28;20115;-28
2023/10/09 10:14:52;;;;;;;16.60;10.35;;;17.30;99.90;;;;;;5065477;28;20311;-28
2023/10/09 10:17:21;;;;;;;17.05;10.25;;;17.40;99.90;;;;;;5058189;28;20067;-28
2023/10/09 10:22:48;;;;;;;22.17;10.35;;;17.50;99.90;;;;;;5064720;28;20132;-28
2023/10/09 10:25:35;;;;;;;18.33;9.68;;;17.70;99.90;;;;;;5070441;28;20091;-29
2023/10/09 10:29:01;;;;;;;19.60;10.77;;;17.90;99.90;;;;;;5065693;28;20415;-28
2023/10/09 10:31:15;;;;;;;22.30;10.30;;;18.00;99.90;;;;;;5044499;28;20045;-28
2023/10/09 10:34:06;;;;;;;17.10;9.60;;;18.10;99.90;;;;;;5072386;28;20044;-28
2023/10/09 10:36:34;;;;;;;26.02;10.25;;;18.30;99.90;;;;;;5068198;28;20137;-28
2023/10/09 10:41:59;;;;;;;15.65;8.63;;;18.50;99.90;;;;;;5059836;28;20044;-28
2023/10/09 10:44:36;;;;;;;23.23;9.38;;;18.50;99.90;;;;;;5062918;28;20403;-28
2023/10/09 10:47:02;;;;;;;17.52;8.90;;;18.50;99.90;;;;;;5041750;28;20048;-28
2023/10/09 10:49:38;;;;;;;11.55;8.07;;;18.50;99.90;;;;;;5051525;28;20040;-28
2023/10/09 10:52:17;;;;;;;17.50;9.40;;;18.40;99.90;;;;;;5062935;28;20525;-28
2023/10/09 10:57:19;;;;;;;16.55;8.45;;;18.30;99.90;;;;;;5059694;28;20036;-28
2023/10/09 10:59:45;;;;;;;11.60;7.63;;;18.30;99.90;;;;;;5061717;28;20116;-28
2023/10/09 11:04:43;;;;;;;15.82;7.75;;;18.20;99.90;;;;;;5067805;28;20051;-28
2023/10/09 11:07:09;;;;;;;16.13;8.48;;;18.10;99.90;;;;;;5062372;28;20041;-28
2023/10/09 11:12:44;;;;;;;13.80;8.70;;;18.10;99.90;;;;;;5063205;28;20102;-27
2023/10/09 11:18:20;;;;;;;14.50;8.45;;;18.20;99.90;;;;;;5065841;28;20037;-27
2023/10/09 11:23:39;;;;;;;13.18;7.75;;;18.30;99.90;;;;;;5063283;28;20048;-27
2023/10/09 11:26:23;;;;;;;16.05;8.45;;;18.30;99.90;;;;;;5060883;28;20395;-28
2023/10/09 11:32:06;;;;;;;16.27;7.82;;;18.40;99.90;;;;;;5062791;28;20040;-28
2023/10/09 11:34:37;;;;;;;11.90;7.68;;;18.50;99.90;;;;;;5063138;28;20812;-28
2023/10/09 11:37:15;;;;;;;10.30;6.68;;;18.50;99.90;;;;;;5065480;28;20041;-28
2023/10/09 11:39:50;;;;;;;12.55;7.13;;;18.50;99.90;;;;;;5068425;28;20166;-27
2023/10/09 11:42:35;;;;;;;7.95;6.25;;;18.60;99.90;;;;;;5064425;28;20048;-28
2023/10/09 11:45:21;;;;;;;10.68;6.80;;;18.70;99.90;;;;;;5049853;28;20032;-28
2023/10/09 11:48:00;;;;;;;11.95;6.63;;;18.80;99.90;;;;;;5062901;28;20036;-27
2023/10/09 11:50:49;;;;;;;12.55;7.30;;;18.90;99.90;;;;;;5049766;28;20040;-28
2023/10/09 11:53:33;;;;;;;12.95;7.32;;;19.00;99.90;;;;;;5066436;28;20074;-28
2023/10/09 11:55:59;;;;;;;11.80;6.95;;;19.00;99.90;;;;;;5064166;28;20097;-27
2023/10/09 11:58:26;;;;;;;12.80;6.82;;;19.00;99.90;;;;;;5066419;28;20033;-28
2023/10/09 12:01:05;;;;;;;14.07;6.90;;;19.10;99.90;;;;;;5052124;28;20043;-28
2023/10/09 12:03:32;;;;;;;12.25;7.28;;;19.00;99.90;;;;;;5064861;28;20044;-28
2023/10/09 12:06:04;;;;;;;11.10;6.78;;;19.00;99.90;;;;;;5044103;28;20041;-28
2023/10/09 12:08:30;;;;;;;10.43;6.22;;;18.90;99.90;;;;;;5069672;28;20040;-27
2023/10/09 12:10:56;;;;;;;9.98;6.72;;;18.80;99.90;;;;;;5065437;28;20040;-27
2023/10/09 12:13:25;;;;;;;11.73;5.65;;;18.80;99.90;;;;;;5063640;28;20094;-27
2023/10/09 12:15:54;;;;;;;10.57;5.97;;;18.70;99.90;;;;;;5050499;28;20071;-28
2023/10/09 12:18:21;;;;;;;12.93;6.25;;;18.70;99.90;;;;;;5062950;28;20395;-28
2023/10/09 12:20:51;;;;;;;11.07;5.60;;;18.70;99.90;;;;;;5067107;28;20063;-37
2023/10/09 12:26:57;;;;;;;8.57;5.32;;;18.80;99.90;;;;;;5061771;28;20023;-31
2023/10/09 12:29:24;;;;;;;8.55;4.38;;;18.80;99.90;;;;;;5069990;28;20037;-29
2023/10/09 12:31:58;;;;;;;5.47;4.38;;;18.80;99.90;;;;;;5052528;28;20120;-30
2023/10/09 12:34:26;;;;;;;7.13;4.47;;;18.70;99.90;;;;;;5056713;28;20040;-29
2023/10/09 12:37:00;;;;;;;7.55;4.40;;;18.70;99.90;;;;;;5053188;28;20040;-29
2023/10/09 12:39:33;;;;;;;7.13;4.72;;;18.70;99.90;;;;;;5044790;28;20112;-29
2023/10/09 12:42:06;;;;;;;6.78;4.05;;;18.70;99.90;;;;;;5061109;28;20041;-30
2023/10/09 12:44:42;;;;;;;9.35;4.28;;;18.80;99.90;;;;;;5050168;28;20044;-30
2023/10/09 12:47:11;;;;;;;7.28;4.45;;;18.80;99.90;;;;;;5067864;28;20079;-29
2023/10/09 12:49:40;;;;;;;7.85;4.32;;;19.00;99.90;;;;;;5063916;28;20046;-31
2023/10/09 12:52:15;;;;;;;8.15;4.53;;;19.10;99.90;;;;;;5057366;28;20037;-31
2023/10/09 12:54:47;;;;;;;9.27;4.55;;;19.30;99.90;;;;;;5041886;28;20104;-30
2023/10/09 12:57:13;;;;;;;10.45;4.60;;;19.40;99.90;;;;;;5045984;28;20120;-30
2023/10/09 12:59:48;;;;;;;8.43;4.28;;;19.70;99.90;;;;;;5066129;28;20040;-31
2023/10/09 13:02:28;;;;;;;10.90;4.60;;;19.80;99.90;;;;;;5057998;28;20077;-29
2023/10/09 13:04:55;;;;;;;8.45;4.00;;;19.80;99.90;;;;;;5064167;28;20068;-28
2023/10/09 13:07:22;;;;;;;7.53;4.28;;;19.70;99.90;;;;;;5065418;28;20065;-30
2023/10/09 13:12:32;;;;;;;7.63;4.15;;;19.80;99.90;;;;;;5061560;28;20056;-28
2023/10/09 13:14:58;;;;;;;6.82;4.38;;;19.90;99.90;;;;;;5068467;28;20032;-29
2023/10/09 13:17:27;;;;;;;5.93;3.92;;;20.00;99.90;;;;;;5064713;28;20032;-29
2023/10/09 13:19:54;;;;;;;9.25;3.90;;;20.10;99.90;;;;;;5070392;28;20033;-29
2023/10/09 13:22:21;;;;;;;6.30;3.53;;;20.20;99.90;;;;;;5063753;28;20124;-29
2023/10/09 13:24:48;;;;;;;8.85;3.92;;;20.20;99.90;;;;;;5056646;28;20079;-29
2023/10/09 13:27:21;;;;;;;7.10;4.03;;;20.30;99.90;;;;;;5065396;28;20419;-28
2023/10/09 13:29:48;;;;;;;10.20;3.80;;;20.30;99.90;;;;;;5053011;28;20036;-28
2023/10/09 13:32:15;;;;;;;7.00;3.40;;;20.20;99.90;;;;;;5068476;28;20036;-29
2023/10/09 13:34:46;;;;;;;8.30;3.92;;;20.10;99.90;;;;;;5069231;28;20491;-31
2023/10/09 13:37:13;;;;;;;7.60;3.95;;;20.00;99.90;;;;;;5061860;28;20045;-29
2023/10/09 13:39:40;;;;;;;7.55;3.38;;;19.90;99.90;;;;;;5063264;28;20072;-29
2023/10/09 13:42:10;;;;;;;6.07;3.30;;;19.80;99.90;;;;;;5046440;28;20036;-30
2023/10/09 13:44:41;;;;;;;5.97;2.95;;;19.70;99.90;;;;;;5065680;28;20033;-29
2023/10/09 13:47:18;;;;;;;7.82;3.42;;;19.60;99.90;;;;;;5066256;28;20113;-28
2023/10/09 13:49:52;;;;;;;4.43;2.97;;;19.60;99.90;;;;;;5064192;28;20032;-28
2023/10/09 13:52:18;;;;;;;7.45;3.60;;;19.60;99.90;;;;;;5047543;28;20492;-28
2023/10/09 13:54:49;;;;;;;5.95;3.08;;;19.70;99.90;;;;;;5065341;28;20131;-29
2023/10/09 13:57:15;;;;;;;6.68;3.25;;;19.80;99.90;;;;;;5066218;28;20037;-29
2023/10/09 13:59:43;;;;;;;6.88;3.25;;;19.90;99.90;;;;;;5070117;28;20372;-29
2023/10/09 14:02:09;;;;;;;6.22;3.17;;;19.90;99.90;;;;;;5070161;28;20045;-29
2023/10/09 14:04:35;;;;;;;7.57;3.40;;;19.90;99.90;;;;;;5065762;28;20028;-28
2023/10/09 14:07:05;;;;;;;6.80;3.05;;;20.00;99.90;;;;;;5069261;28;20028;-29
2023/10/09 14:09:31;;;;;;;8.88;3.03;;;20.00;99.90;;;;;;5068705;28;20075;-30
2023/10/09 14:12:08;;;;;;;5.50;2.92;;;20.20;99.90;;;;;;5066125;28;20045;-30
2023/10/09 14:14:37;;;;;;;5.97;3.60;;;20.60;99.90;;;;;;5051236;28;20087;-30
2023/10/09 14:17:11;;;;;;;7.10;3.25;;;20.70;99.90;;;;;;5067942;28;20060;-30
2023/10/09 14:19:50;;;;;;;7.38;3.45;;;20.60;99.90;;;;;;5061669;28;20036;-30
2023/10/09 14:22:26;;;;;;;6.68;3.08;;;20.50;99.90;;;;;;5061716;28;20480;-28
2023/10/09 14:24:56;;;;;;;5.53;2.90;;;20.30;99.90;;;;;;5064908;28;20052;-31
2023/10/09 14:27:26;;;;;;;4.25;2.95;;;20.10;99.90;;;;;;5063603;28;20060;-29
2023/10/09 14:29:56;;;;;;;5.95;2.70;;;20.00;99.90;;;;;;5071420;28;20517;-30
2023/10/09 14:32:28;;;;;;;3.58;2.13;;;19.80;99.90;;;;;;5058738;28;20045;-31
2023/10/09 14:34:55;;;;;;;5.75;2.70;;;19.80;99.90;;;;;;5071267;28;20698;-29
2023/10/09 14:37:21;;;;;;;6.28;2.55;;;19.70;99.90;;;;;;5068399;28;20311;-30
2023/10/09 14:39:50;;;;;;;5.57;2.95;;;19.60;99.90;;;;;;5062110;28;20236;-29
2023/10/09 14:42:20;;;;;;;5.32;2.80;;;19.50;99.90;;;;;;5066760;28;20120;-29
2023/10/09 14:44:46;;;;;;;8.15;3.22;;;19.40;99.90;;;;;;5046596;28;20124;-29
2023/10/09 14:47:14;;;;;;;7.90;3.25;;;19.30;99.90;;;;;;5065816;28;20163;-30
2023/10/09 14:49:46;;;;;;;6.80;2.97;;;19.20;99.90;;;;;;5057053;28;20037;-31
2023/10/09 14:52:16;;;;;;;6.60;3.23;;;19.20;99.90;;;;;;5064379;28;20384;-29
2023/10/09 14:54:45;;;;;;;8.38;2.95;;;19.10;99.90;;;;;;5069732;28;20044;-31
2023/10/09 14:57:11;;;;;;;10.63;3.38;;;19.10;99.90;;;;;;5066607;28;20035;-31
2023/10/09 14:59:38;;;;;;;6.43;3.20;;;19.00;99.90;;;;;;5068154;28;20101;-30
2023/10/09 15:02:07;;;;;;;4.72;2.45;;;19.00;99.90;;;;;;5066581;28;20040;-29
2023/10/09 15:04:36;;;;;;;6.97;2.95;;;18.90;99.90;;;;;;5063757;28;20115;-29
2023/10/09 15:07:06;;;;;;;5.70;2.97;;;18.90;99.90;;;;;;5061945;28;20051;-30
2023/10/09 15:09:34;;;;;;;8.30;2.92;;;18.80;99.90;;;;;;5063818;28;20041;-29
2023/10/09 15:12:00;;;;;;;7.85;3.00;;;18.80;99.90;;;;;;5064259;28;20029;-31
2023/10/09 15:14:45;;;;;;;4.28;2.40;;;18.70;99.90;;;;;;5138829;22;20044;-86
2023/10/09 15:21:08;;;;;;;7.38;3.15;;;18.60;99.90;;;;;;5057651;28;20045;-86
2023/10/09 15:23:37;;;;;;;5.82;3.17;;;18.50;99.90;;;;;;5036696;28;20045;-86
2023/10/09 15:26:06;;;;;;;5.95;2.90;;;18.40;99.90;;;;;;5039944;28;20518;-85
2023/10/09 15:28:43;;;;;;;6.85;3.33;;;18.40;99.90;;;;;;5057782;28;20083;-85
2023/10/09 15:31:16;;;;;;;8.18;3.50;;;18.30;99.90;;;;;;5050789;28;20053;-85
2023/10/09 15:33:52;;;;;;;6.63;3.30;;;18.30;99.90;;;;;;5049518;28;20041;-84